Time;durP1;ratioP1;P1;durP2;ratioP2;P2;SDS_P1;SDS_P2;PMS_P1;PMS_P2;Temp;Humidity;BMP_temperature;BMP_pressure;BME280_temperature;BME280_humidity;BME280_pressure;Samples;Min_cycle;Max_cycle;Signal;HPM_P1;HPM_P2
2021/03/20 00:00:53;;;;;;;5.80;1.40;;;;;;;2.97;46.61;102467.09;5008472;28;97059;-78
2021/03/20 00:03:19;;;;;;;6.10;2.25;;;;;;;2.60;47.55;102471.47;5011696;28;97813;-79
2021/03/20 00:05:46;;;;;;;7.43;2.17;;;;;;;2.74;47.36;102477.91;5002072;28;98696;-78
2021/03/20 00:08:17;;;;;;;7.25;1.90;;;;;;;2.76;48.11;102484.03;4994784;28;97880;-79
2021/03/20 00:10:46;;;;;;;8.38;1.92;;;;;;;3.09;46.79;102464.75;5004821;28;96818;-78
2021/03/20 00:13:12;;;;;;;4.13;1.92;;;;;;;2.76;47.54;102478.81;4997401;28;97800;-78
2021/03/20 00:15:40;;;;;;;9.15;2.60;;;;;;;2.74;47.72;102475.31;4988522;28;99307;-78
2021/03/20 00:18:07;;;;;;;7.45;2.55;;;;;;;3.59;45.78;102473.72;4999002;28;96792;-80
2021/03/20 00:20:36;;;;;;;5.50;2.13;;;;;;;3.56;45.90;102484.97;4997024;28;97223;-80
2021/03/20 00:23:03;;;;;;;6.95;2.17;;;;;;;2.92;47.33;102476.56;4989599;28;100488;-79
2021/03/20 00:25:30;;;;;;;9.25;2.10;;;;;;;2.80;47.53;102480.66;5002550;28;99017;-78
2021/03/20 00:27:57;;;;;;;8.05;2.40;;;;;;;2.63;47.66;102479.38;4997182;28;97124;-79
2021/03/20 00:30:24;;;;;;;10.95;2.65;;;;;;;2.30;49.28;102486.34;5008236;28;96773;-77
2021/03/20 00:32:50;;;;;;;7.07;2.03;;;;;;;2.45;48.64;102473.69;4992911;28;97733;-79
2021/03/20 00:35:19;;;;;;;5.55;1.80;;;;;;;2.40;48.52;102476.19;4991053;28;99843;-79
2021/03/20 00:37:45;;;;;;;3.63;1.80;;;;;;;2.76;47.55;102470.09;4996697;28;96615;-79
2021/03/20 00:40:16;;;;;;;5.68;1.90;;;;;;;2.93;47.25;102480.94;4991525;28;96827;-79
2021/03/20 00:42:43;;;;;;;6.00;2.30;;;;;;;2.96;47.34;102484.50;5003315;28;98919;-79
2021/03/20 00:45:12;;;;;;;4.85;2.13;;;;;;;3.29;46.50;102484.38;4994877;28;98950;-79
2021/03/20 00:47:38;;;;;;;5.88;2.15;;;;;;;3.33;46.06;102483.63;4988154;28;97122;-79
2021/03/20 00:50:06;;;;;;;8.23;2.03;;;;;;;3.48;46.04;102480.41;4997303;28;96909;-78
2021/03/20 00:52:32;;;;;;;6.30;2.08;;;;;;;3.77;45.22;102473.19;4990916;28;99295;-78
2021/03/20 00:54:58;;;;;;;5.00;2.33;;;;;;;3.73;45.28;102479.22;4983228;28;98900;-78
2021/03/20 00:57:24;;;;;;;5.15;1.67;;;;;;;2.62;47.15;102484.56;4998090;28;96909;-78
2021/03/20 00:59:51;;;;;;;;;;;;;;;2.39;48.35;102483.97;5013091;28;96506;-79
2021/03/20 01:02:17;;;;;;;8.25;1.73;;;;;;;2.50;48.05;102489.47;5011757;28;97956;-77
2021/03/20 01:04:43;;;;;;;;;;;;;;;2.51;48.25;102480.78;5017331;28;97649;-78
2021/03/20 01:07:09;;;;;;;9.02;1.80;;;;;;;2.39;48.32;102473.53;4989695;28;96634;-78
2021/03/20 01:09:35;;;;;;;5.70;1.63;;;;;;;3.14;46.62;102457.94;4994048;28;97056;-79
2021/03/20 01:12:02;;;;;;;3.58;1.38;;;;;;;2.78;47.21;102479.75;5014078;28;97719;-78
2021/03/20 01:14:28;;;;;;;3.03;1.50;;;;;;;2.34;48.63;102476.06;4984631;28;98842;-80
2021/03/20 01:16:55;;;;;;;2.83;1.27;;;;;;;2.68;48.38;102477.78;4991499;28;96791;-79
2021/03/20 01:19:21;;;;;;;7.18;1.33;;;;;;;2.67;48.23;102468.16;4993649;28;96808;-78
2021/03/20 01:21:47;;;;;;;8.40;2.10;;;;;;;2.75;47.58;102474.47;4994479;28;98173;-80
2021/03/20 01:24:13;;;;;;;7.70;1.75;;;;;;;2.83;47.46;102466.78;4996651;28;97936;-78
2021/03/20 01:26:39;;;;;;;;;;;;;;;3.08;47.12;102471.75;4996927;28;96905;-79
2021/03/20 01:29:05;;;;;;;7.68;1.70;;;;;;;2.36;48.85;102474.34;4996377;28;97022;-80
2021/03/20 01:31:31;;;;;;;;;;;;;;;2.22;48.80;102465.31;5010240;28;97751;-80
2021/03/20 01:33:58;;;;;;;3.78;1.30;;;;;;;2.04;49.79;102469.13;5002271;28;101352;-80
2021/03/20 01:36:24;;;;;;;7.22;1.13;;;;;;;2.20;49.42;102469.59;4987197;28;96691;-80
2021/03/20 01:38:50;;;;;;;5.80;1.92;;;;;;;1.90;49.88;102468.78;4984726;28;97930;-80
2021/03/20 01:41:19;;;;;;;5.18;1.60;;;;;;;2.55;48.86;102462.66;4995224;28;98938;-79
2021/03/20 01:43:46;;;;;;;9.70;2.13;;;;;;;2.82;47.77;102457.22;4994080;28;99282;-79
2021/03/20 01:46:36;;;;;;;6.43;1.83;;;;;;;2.84;47.84;102462.44;4993606;28;96957;-80
2021/03/20 01:49:14;;;;;;;5.90;1.50;;;;;;;2.89;47.70;102460.84;4992514;28;96928;-80
2021/03/20 01:51:40;;;;;;;3.30;1.50;;;;;;;2.86;47.71;102463.38;4993941;28;98901;-80
2021/03/20 01:54:06;;;;;;;7.13;1.92;;;;;;;2.96;47.81;102449.66;4991111;28;98986;-78
2021/03/20 01:56:36;;;;;;;9.07;2.15;;;;;;;2.40;48.88;102457.06;5001430;28;96690;-79
2021/03/20 01:59:02;;;;;;;6.60;1.50;;;;;;;2.14;49.54;102455.50;5003270;28;96823;-79
2021/03/20 02:01:31;;;;;;;3.53;1.73;;;;;;;2.08;49.55;102465.78;5008509;28;98914;-78
2021/03/20 02:03:59;;;;;;;11.07;1.83;;;;;;;2.42;49.05;102462.31;4990290;28;99174;-80
2021/03/20 02:06:28;;;;;;;4.15;1.80;;;;;;;2.95;47.42;102461.00;5011819;28;96885;-78
2021/03/20 02:08:59;;;;;;;4.95;1.63;;;;;;;3.58;45.80;102451.91;4995844;28;96762;-78
2021/03/20 02:11:29;;;;;;;5.55;1.60;;;;;;;3.51;46.49;102444.78;4991888;28;98866;-79
2021/03/20 02:14:06;;;;;;;9.65;1.85;;;;;;;3.73;45.92;102440.88;4991793;28;99250;-79
2021/03/20 02:16:38;;;;;;;4.28;1.45;;;;;;;4.01;45.11;102450.09;4984398;28;97552;-79
2021/03/20 02:19:15;;;;;;;2.88;1.40;;;;;;;3.77;45.58;102440.06;4997519;28;96599;-80
2021/03/20 02:21:50;;;;;;;8.65;1.58;;;;;;;3.63;46.32;102448.50;4990093;28;97741;-78
2021/03/20 02:24:55;;;;;;;5.53;1.90;;;;;;;3.37;46.71;102456.69;4993720;28;98962;-79
2021/03/20 02:27:49;;;;;;;3.35;1.63;;;;;;;3.54;46.06;102457.91;4979693;28;96806;-79
2021/03/20 02:30:51;;;;;;;7.13;1.60;;;;;;;3.48;46.21;102454.28;4984183;28;96766;-78
2021/03/20 02:33:35;;;;;;;4.85;1.65;;;;;;;3.86;45.85;102452.44;4981229;28;98938;-78
2021/03/20 02:36:18;;;;;;;2.58;1.33;;;;;;;3.57;45.93;102454.47;4988765;28;98937;-78
2021/03/20 02:38:49;;;;;;;4.50;1.48;;;;;;;3.60;46.01;102449.34;4994791;28;96762;-78
2021/03/20 02:41:25;;;;;;;9.68;2.53;;;;;;;3.19;46.78;102443.25;4980419;28;97950;-79
2021/03/20 02:43:57;;;;;;;5.10;1.92;;;;;;;3.67;46.03;102434.66;4994015;28;98734;-79
2021/03/20 02:46:27;;;;;;;7.28;2.00;;;;;;;3.73;45.54;102442.63;4994125;28;99617;-79
2021/03/20 02:49:01;;;;;;;3.92;1.30;;;;;;;3.53;46.62;102443.09;4993994;28;97434;-79
2021/03/20 02:51:35;;;;;;;7.57;1.58;;;;;;;3.87;45.67;102438.53;4994621;28;96811;-79
2021/03/20 02:54:06;;;;;;;3.53;1.58;;;;;;;3.83;45.71;102448.03;4992870;28;99361;-79
2021/03/20 02:56:40;;;;;;;5.10;1.50;;;;;;;3.59;45.90;102451.06;4987917;28;98840;-79
2021/03/20 02:59:11;;;;;;;6.05;1.40;;;;;;;3.57;46.18;102444.03;4986263;28;96887;-79
2021/03/20 03:01:39;;;;;;;10.10;1.77;;;;;;;3.17;47.32;102444.94;4994374;28;96592;-79
2021/03/20 03:04:10;;;;;;;6.43;1.40;;;;;;;3.57;46.18;102450.16;4984206;28;97843;-79
2021/03/20 03:06:45;;;;;;;4.15;1.23;;;;;;;3.61;46.43;102444.13;4985943;28;98246;-79
2021/03/20 03:09:16;;;;;;;3.00;1.42;;;;;;;3.81;46.26;102438.38;4988222;28;97220;-79
2021/03/20 03:11:48;;;;;;;7.43;1.83;;;;;;;4.07;45.19;102438.91;4992896;28;97009;-80
2021/03/20 03:14:17;;;;;;;4.82;1.60;;;;;;;3.22;47.16;102446.78;4980980;28;98157;-78
2021/03/20 03:16:47;;;;;;;7.50;1.85;;;;;;;3.20;47.29;102447.63;4990905;28;98845;-79
2021/03/20 03:19:20;;;;;;;7.13;1.80;;;;;;;2.67;48.65;102442.06;5002657;28;97235;-79
2021/03/20 03:21:51;;;;;;;4.35;1.38;;;;;;;3.06;47.90;102443.81;4992708;28;96795;-79
2021/03/20 03:24:21;;;;;;;7.25;1.60;;;;;;;2.43;49.32;102444.06;4993101;28;99425;-80
2021/03/20 03:26:51;;;;;;;5.63;1.98;;;;;;;2.86;48.73;102447.72;4992497;28;98961;-79
2021/03/20 03:29:22;;;;;;;4.53;1.50;;;;;;;2.64;48.58;102449.81;5002040;28;96762;-79
2021/03/20 03:31:54;;;;;;;4.38;1.55;;;;;;;2.88;48.52;102453.84;4982872;28;96726;-79
2021/03/20 03:34:29;;;;;;;4.47;1.50;;;;;;;2.88;48.45;102459.97;4983272;28;98146;-79
2021/03/20 03:37:06;;;;;;;3.25;1.58;;;;;;;3.30;47.25;102460.03;4993460;28;98894;-79
2021/03/20 03:39:39;;;;;;;5.25;1.42;;;;;;;3.01;47.58;102456.78;5004698;28;96851;-79
2021/03/20 03:42:06;;;;;;;11.50;2.45;;;;;;;3.10;47.70;102464.81;4992791;28;96826;-79
2021/03/20 03:44:32;;;;;;;6.80;1.73;;;;;;;3.80;46.36;102452.34;5000955;28;99282;-79
2021/03/20 03:46:58;;;;;;;2.97;1.25;;;;;;;3.57;46.22;102471.06;4990738;28;97822;-79
2021/03/20 03:49:27;;;;;;;4.15;1.80;;;;;;;3.94;45.70;102462.19;5001156;28;96605;-79
2021/03/20 03:51:53;;;;;;;7.05;1.92;;;;;;;4.20;45.14;102467.88;4999650;28;97107;-79
2021/03/20 03:54:19;;;;;;;5.95;1.88;;;;;;;3.75;45.68;102467.03;4996511;28;98847;-79
2021/03/20 03:57:19;;;;;;;10.15;1.60;;;;;;;3.45;46.61;102472.53;4991779;28;98017;-79
2021/03/20 03:59:58;;;;;;;5.05;1.90;;;;;;;3.37;46.46;102466.25;4990596;28;96780;-79
2021/03/20 04:02:40;;;;;;;6.70;2.05;;;;;;;3.55;46.55;102456.19;4994126;28;96891;-79
2021/03/20 04:05:11;;;;;;;5.78;1.92;;;;;;;3.05;47.12;102460.34;4986702;28;99274;-79
2021/03/20 04:07:46;;;;;;;6.93;2.47;;;;;;;2.77;48.00;102461.44;4992127;28;98898;-79
2021/03/20 04:10:22;;;;;;;4.43;1.63;;;;;;;3.03;47.82;102464.63;4995013;28;96821;-79
2021/03/20 04:12:57;;;;;;;4.05;1.52;;;;;;;3.11;47.52;102457.84;4996829;28;97057;-79
2021/03/20 04:15:37;;;;;;;4.85;1.60;;;;;;;3.75;46.32;102451.34;4998718;28;99270;-78
2021/03/20 04:18:12;;;;;;;5.30;1.80;;;;;;;3.15;47.21;102464.94;5002538;28;97527;-79
2021/03/20 04:20:46;;;;;;;4.28;1.90;;;;;;;3.49;46.91;102462.16;5010071;28;97144;-79
2021/03/20 04:23:18;;;;;;;7.20;1.60;;;;;;;3.98;45.45;102455.28;5011666;28;96794;-79
2021/03/20 04:25:52;;;;;;;6.57;1.75;;;;;;;3.54;46.42;102455.28;5015032;28;98995;-78
2021/03/20 04:28:24;;;;;;;5.82;1.73;;;;;;;4.07;45.61;102452.81;5013355;28;98734;-79
2021/03/20 04:30:59;;;;;;;5.88;1.45;;;;;;;4.52;44.53;102451.88;5000252;28;96948;-79
2021/03/20 04:33:34;;;;;;;5.82;1.60;;;;;;;4.58;44.42;102446.75;5011833;28;96621;-80
2021/03/20 04:36:05;;;;;;;5.97;1.90;;;;;;;4.39;44.60;102456.03;4998145;28;98954;-79
2021/03/20 04:38:31;;;;;;;4.40;1.33;;;;;;;4.40;44.70;102437.72;4997214;28;99233;-79
2021/03/20 04:41:00;;;;;;;5.40;1.30;;;;;;;4.49;44.60;102443.97;4992947;28;96857;-79
2021/03/20 04:43:29;;;;;;;6.65;1.77;;;;;;;4.57;44.27;102455.44;4992693;28;96733;-79
2021/03/20 04:45:57;;;;;;;4.95;1.70;;;;;;;4.28;44.79;102452.34;4995719;28;99320;-79
2021/03/20 04:48:26;;;;;;;6.18;1.55;;;;;;;4.40;44.18;102448.19;4985035;28;99275;-79
2021/03/20 04:50:56;;;;;;;5.55;1.50;;;;;;;3.78;45.37;102464.50;4996398;28;96904;-80
2021/03/20 04:53:23;;;;;;;4.25;1.55;;;;;;;3.04;47.70;102458.56;4987451;28;96913;-79
2021/03/20 04:55:54;;;;;;;5.05;1.90;;;;;;;2.73;48.56;102460.47;4996161;28;97765;-79
2021/03/20 04:58:37;;;;;;;5.80;1.40;;;;;;;3.18;48.00;102472.81;4989792;28;97762;-79
2021/03/20 05:01:09;;;;;;;8.95;2.10;;;;;;;3.25;47.15;102466.00;4993515;28;96755;-79
2021/03/20 05:03:41;;;;;;;5.20;1.70;;;;;;;4.12;45.52;102460.78;4986143;28;96732;-79
2021/03/20 05:06:10;;;;;;;3.70;1.27;;;;;;;3.85;45.76;102466.38;4994518;28;99188;-80
2021/03/20 05:08:42;;;;;;;3.53;1.50;;;;;;;3.34;47.35;102472.31;4995184;28;98941;-80
2021/03/20 05:11:15;;;;;;;10.00;1.63;;;;;;;3.22;46.95;102469.41;4994928;28;96797;-79
2021/03/20 05:13:46;;;;;;;3.67;1.25;;;;;;;2.89;47.92;102468.69;4996858;28;97128;-79
2021/03/20 05:16:34;;;;;;;3.88;1.80;;;;;;;3.58;46.84;102462.38;4996589;28;97796;-79
2021/03/20 05:19:00;;;;;;;4.50;1.40;;;;;;;3.24;47.36;102465.13;4996125;28;99303;-79
2021/03/20 05:21:27;;;;;;;;;;;;;;;4.07;45.99;102460.69;4995400;28;96761;-80
2021/03/20 05:23:55;;;;;;;5.95;1.92;;;;;;;4.37;44.50;102457.72;4995797;28;96808;-79
2021/03/20 05:26:22;;;;;;;6.15;2.25;;;;;;;4.70;43.69;102457.41;4985280;28;99323;-79
2021/03/20 05:28:49;;;;;;;4.35;1.80;;;;;;;4.87;42.81;102452.41;4995518;28;98963;-79
2021/03/20 05:31:15;;;;;;;8.20;1.98;;;;;;;4.89;43.05;102462.06;4994579;28;97933;-79
2021/03/20 05:33:43;;;;;;;10.02;2.10;;;;;;;4.26;44.46;102469.75;4996202;28;96862;-79
2021/03/20 05:36:09;;;;;;;9.77;1.67;;;;;;;4.29;44.70;102473.31;4993691;28;99197;-79
2021/03/20 05:38:36;;;;;;;5.40;1.48;;;;;;;4.19;44.75;102474.00;4994619;28;98999;-79
2021/03/20 05:41:08;;;;;;;12.98;2.28;;;;;;;4.25;44.36;102471.50;4993516;28;96811;-79
2021/03/20 05:43:44;;;;;;;5.60;2.13;;;;;;;3.77;45.35;102478.41;4993556;28;97136;-79
2021/03/20 05:46:25;;;;;;;4.65;1.52;;;;;;;4.19;45.22;102465.28;4994324;28;99301;-78
2021/03/20 05:49:05;;;;;;;4.63;1.75;;;;;;;4.02;45.59;102472.78;4988175;28;98979;-80
2021/03/20 05:51:52;;;;;;;5.22;1.45;;;;;;;3.82;46.38;102482.00;4996467;28;97061;-81
2021/03/20 05:54:36;;;;;;;4.30;1.35;;;;;;;3.91;46.08;102490.91;4994646;28;97242;-79
2021/03/20 05:57:13;;;;;;;4.07;1.50;;;;;;;4.25;45.02;102471.50;4984368;28;99279;-79
2021/03/20 05:59:51;;;;;;;6.32;1.85;;;;;;;4.43;44.57;102475.28;4993730;28;98824;-79
2021/03/20 06:02:21;;;;;;;8.35;2.05;;;;;;;4.74;44.21;102474.91;4994779;28;96788;-79
2021/03/20 06:04:55;;;;;;;9.13;1.85;;;;;;;4.94;44.44;102483.09;4995006;28;96686;-79
2021/03/20 06:07:47;;;;;;;5.13;1.85;;;;;;;4.91;43.89;102477.81;4997048;28;98930;-78
2021/03/20 06:10:31;;;;;;;8.52;2.28;;;;;;;5.19;43.01;102483.47;5005830;28;99031;-78
2021/03/20 06:13:11;;;;;;;5.47;2.03;;;;;;;4.92;44.52;102490.94;4992405;28;96772;-78
2021/03/20 06:16:03;;;;;;;5.40;2.35;;;;;;;4.91;44.66;102493.53;5009433;28;96664;-79
2021/03/20 06:18:56;;;;;;;10.80;1.90;;;;;;;4.64;45.18;102493.97;5010433;28;98114;-79
2021/03/20 06:21:32;;;;;;;5.32;1.50;;;;;;;4.78;44.46;102495.06;5007454;28;99004;-80
2021/03/20 06:24:48;;;;;;;4.47;1.52;;;;;;;5.10;44.46;102506.94;5007480;28;96533;-79
2021/03/20 06:27:19;;;;;;;4.57;1.85;;;;;;;5.19;44.11;102495.69;4962032;28;96830;-78
2021/03/20 06:30:03;;;;;;;4.95;1.55;;;;;;;5.88;43.07;102498.38;5005863;28;97884;-78
2021/03/20 06:32:34;;;;;;;5.97;1.75;;;;;;;5.66;42.64;102493.69;5004321;28;98106;-77
2021/03/20 06:35:04;;;;;;;9.40;2.25;;;;;;;5.83;42.30;102499.16;5001823;28;96741;-79
2021/03/20 06:37:35;;;;;;;6.78;1.88;;;;;;;5.33;43.13;102501.13;4998650;28;97438;-78
2021/03/20 06:40:13;;;;;;;6.82;1.55;;;;;;;5.44;43.12;102497.81;4996928;28;98948;-79
2021/03/20 06:42:39;;;;;;;6.25;2.13;;;;;;;5.73;42.54;102494.66;4984390;28;97893;-79
2021/03/20 06:45:16;;;;;;;6.38;2.05;;;;;;;5.86;42.23;102484.31;4996537;28;96861;-79
2021/03/20 06:47:46;;;;;;;7.55;2.20;;;;;;;5.85;41.46;102485.19;4982717;28;96855;-79
2021/03/20 06:50:19;;;;;;;5.50;1.45;;;;;;;6.18;41.59;102481.19;4997032;28;99284;-79
2021/03/20 06:52:50;;;;;;;8.35;1.98;;;;;;;5.93;41.78;102480.94;4988542;28;97940;-79
2021/03/20 06:55:24;;;;;;;8.57;1.95;;;;;;;5.87;41.05;102483.50;4983925;28;96805;-79
2021/03/20 06:57:50;;;;;;;5.93;1.40;;;;;;;6.00;40.74;102469.66;4998095;28;96655;-78
2021/03/20 07:00:24;;;;;;;5.82;1.40;;;;;;;5.72;40.94;102477.16;4994134;28;98911;-79
2021/03/20 07:03:01;;;;;;;5.53;1.80;;;;;;;5.91;40.52;102464.28;5005107;28;99719;-79
2021/03/20 07:05:35;;;;;;;3.30;1.80;;;;;;;5.59;41.07;102468.25;4987017;28;96900;-79
2021/03/20 07:08:11;;;;;;;5.47;1.70;;;;;;;5.90;40.60;102457.31;4993888;28;96815;-79
2021/03/20 07:10:41;;;;;;;6.20;1.70;;;;;;;6.33;39.55;102453.34;4989688;28;102225;-79
2021/03/20 07:13:20;;;;;;;4.53;1.88;;;;;;;6.12;39.77;102463.63;4992677;28;99335;-79
2021/03/20 07:16:01;;;;;;;5.25;1.50;;;;;;;6.58;38.88;102459.69;4987647;28;96965;-78
2021/03/20 07:18:39;;;;;;;4.55;1.60;;;;;;;6.35;38.99;102464.75;4992693;28;96836;-79
2021/03/20 07:21:31;;;;;;;6.47;2.05;;;;;;;6.71;37.90;102472.03;4987902;28;101829;-79
2021/03/20 07:24:01;;;;;;;4.20;1.30;;;;;;;6.64;37.94;102469.34;4995523;28;98868;-79
2021/03/20 07:26:29;;;;;;;3.78;1.60;;;;;;;6.57;37.44;102471.03;4993192;28;97229;-79
2021/03/20 07:28:59;;;;;;;3.85;1.23;;;;;;;7.16;36.41;102466.22;4995913;28;96896;-80
2021/03/20 07:31:28;;;;;;;4.50;1.42;;;;;;;7.49;36.33;102470.75;5003987;28;98895;-79
2021/03/20 07:34:12;;;;;;;7.00;1.77;;;;;;;7.56;35.70;102477.81;4985099;28;97676;-79
2021/03/20 07:36:40;;;;;;;4.20;1.30;;;;;;;8.06;34.86;102466.59;4995017;28;97065;-79
2021/03/20 07:39:14;;;;;;;2.05;1.17;;;;;;;7.88;34.74;102471.78;4995069;28;96784;-80
2021/03/20 07:41:59;;;;;;;5.82;1.30;;;;;;;7.61;34.96;102473.44;4982566;28;97011;-79
2021/03/20 07:44:28;;;;;;;6.68;1.80;;;;;;;5.83;37.53;102486.94;4984237;28;97764;-79
2021/03/20 07:46:56;;;;;;;4.97;1.70;;;;;;;6.10;37.27;102485.50;4991881;28;96930;-79
2021/03/20 07:49:29;;;;;;;3.72;2.00;;;;;;;6.50;37.08;102476.25;4995983;28;96791;-79
2021/03/20 07:51:57;;;;;;;7.03;1.52;;;;;;;7.29;36.00;102477.69;4996486;28;97810;-79
2021/03/20 07:54:28;;;;;;;5.10;1.70;;;;;;;6.73;35.84;102486.09;4981740;28;99083;-79
2021/03/20 07:57:04;;;;;;;5.40;1.50;;;;;;;7.60;34.70;102487.50;4990363;28;96949;-78
2021/03/20 07:59:32;;;;;;;2.63;1.20;;;;;;;8.23;33.78;102485.91;4999045;28;96714;-79
2021/03/20 08:02:01;;;;;;;3.58;1.30;;;;;;;8.23;33.13;102492.94;4990879;28;99456;-79
2021/03/20 08:04:51;;;;;;;4.75;1.13;;;;;;;7.99;33.17;102492.03;4994754;28;98954;-79
2021/03/20 08:07:33;;;;;;;3.10;1.20;;;;;;;7.88;32.95;102483.19;4982173;28;96776;-79
2021/03/20 08:10:18;;;;;;;6.68;1.52;;;;;;;7.20;34.40;102493.41;4982595;28;96886;-79
2021/03/20 08:12:58;;;;;;;3.42;1.42;;;;;;;8.22;33.22;102488.53;4988010;28;99303;-79
2021/03/20 08:15:29;;;;;;;3.85;1.48;;;;;;;8.36;32.73;102490.38;4989710;28;100371;-78
2021/03/20 08:17:58;;;;;;;6.00;2.00;;;;;;;8.85;31.59;102489.50;4983582;28;97554;-79
2021/03/20 08:20:24;;;;;;;6.30;1.70;;;;;;;8.91;31.52;102490.38;4990475;28;96851;-80
2021/03/20 08:23:04;;;;;;;11.55;4.25;;;;;;;8.91;31.28;102492.13;4991582;28;99394;-79
2021/03/20 08:25:47;;;;;;;5.32;1.80;;;;;;;8.50;31.11;102489.50;4985204;28;99010;-78
2021/03/20 08:28:30;;;;;;;5.53;1.40;;;;;;;8.51;31.47;102489.50;4990586;28;97230;-78
2021/03/20 08:31:05;;;;;;;6.18;2.20;;;;;;;8.21;31.95;102498.19;4992998;28;96915;-79
2021/03/20 08:33:58;;;;;;;5.72;1.73;;;;;;;8.24;31.71;102492.94;4991691;28;102208;-81
2021/03/20 08:36:44;;;;;;;4.97;1.48;;;;;;;8.81;31.05;102488.63;4988215;28;98826;-78
2021/03/20 08:39:28;;;;;;;1.63;1.00;;;;;;;8.42;30.49;102491.25;4988590;28;97718;-80
2021/03/20 08:42:02;;;;;;;3.58;1.25;;;;;;;8.69;30.61;102483.34;4987998;28;97999;-79
2021/03/20 08:45:02;;;;;;;3.08;1.13;;;;;;;8.78;29.14;102478.97;4987459;28;99177;-79
2021/03/20 08:47:44;;;;;;;1.90;0.88;;;;;;;9.01;28.49;102481.56;4997531;28;99299;-78
2021/03/20 08:50:21;;;;;;;2.80;1.00;;;;;;;9.14;27.37;102483.28;4983789;28;97318;-79
2021/03/20 08:52:59;;;;;;;4.95;1.35;;;;;;;8.81;27.48;102488.63;4995592;28;96780;-78
2021/03/20 08:56:14;;;;;;;5.95;1.98;;;;;;;8.37;27.50;102492.13;4993251;28;97827;-78
2021/03/20 08:58:52;;;;;;;4.97;1.20;;;;;;;8.83;27.66;102485.97;4989426;28;100048;-78
2021/03/20 09:01:39;;;;;;;12.15;4.97;;;;;;;9.39;26.63;102468.28;4990475;28;97093;-78
2021/03/20 09:04:09;;;;;;;3.60;1.20;;;;;;;9.17;27.55;102482.44;4990437;28;96824;-78
2021/03/20 09:06:39;;;;;;;4.22;1.20;;;;;;;8.82;27.98;102490.38;4988149;28;99146;-79
2021/03/20 09:09:14;;;;;;;4.45;1.33;;;;;;;9.33;27.29;102488.53;4980270;28;98133;-82
2021/03/20 09:11:48;;;;;;;7.13;1.38;;;;;;;9.34;27.91;102482.38;4993451;28;97373;-78
2021/03/20 09:14:20;;;;;;;5.85;1.65;;;;;;;8.66;28.79;102486.00;4992386;28;96923;-78
2021/03/20 09:16:50;;;;;;;6.32;1.40;;;;;;;7.35;30.63;102490.84;4987141;28;99048;-78
2021/03/20 09:19:22;;;;;;;6.82;1.60;;;;;;;7.54;30.64;102481.34;4990199;28;97049;-79
2021/03/20 09:22:00;;;;;;;7.32;2.58;;;;;;;6.92;31.30;102492.34;4997011;28;97161;-78
2021/03/20 09:24:29;;;;;;;10.38;1.55;;;;;;;7.39;30.99;102497.03;4997713;28;97202;-79
2021/03/20 09:27:00;;;;;;;5.68;1.50;;;;;;;8.40;28.82;102502.66;4995624;28;99004;-79
2021/03/20 09:29:28;;;;;;;1.45;0.93;;;;;;;8.36;28.22;102500.00;4990011;28;98450;-80
2021/03/20 09:32:12;;;;;;;3.47;0.90;;;;;;;8.89;27.51;102493.88;4992910;28;96760;-79
2021/03/20 09:34:50;;;;;;;5.53;1.05;;;;;;;9.09;27.11;102495.63;4980702;28;97171;-78
2021/03/20 09:37:57;;;;;;;3.30;1.58;;;;;;;7.99;27.81;102499.91;4990963;28;97639;-80
2021/03/20 09:40:49;;;;;;;4.18;1.73;;;;;;;8.00;27.74;102496.41;4988565;28;98534;-77
2021/03/20 09:43:48;;;;;;;5.50;1.00;;;;;;;7.45;28.58;102503.19;4986562;28;96756;-79
2021/03/20 09:46:48;;;;;;;3.88;0.90;;;;;;;6.98;29.07;102497.66;4992793;28;96837;-79
2021/03/20 09:49:37;;;;;;;2.50;1.08;;;;;;;6.65;30.03;102502.63;4993238;28;98321;-78
2021/03/20 09:52:04;;;;;;;4.93;1.38;;;;;;;7.46;28.97;102485.66;4991784;28;99285;-78
2021/03/20 09:54:42;;;;;;;4.93;1.25;;;;;;;8.49;27.91;102491.25;4995088;28;96892;-79
2021/03/20 09:57:42;;;;;;;4.45;1.40;;;;;;;8.86;26.73;102486.00;4988078;28;97308;-78
2021/03/20 10:00:15;;;;;;;4.43;1.10;;;;;;;7.05;29.46;102483.69;4986526;28;99807;-78
2021/03/20 10:02:54;;;;;;;2.20;0.90;;;;;;;7.02;29.46;102482.78;4992503;28;98673;-79
2021/03/20 10:05:27;;;;;;;1.83;0.70;;;;;;;6.88;29.59;102500.22;4987165;28;96700;-79
2021/03/20 10:08:00;;;;;;;2.63;0.90;;;;;;;7.60;28.81;102478.72;4994389;28;96867;-79
2021/03/20 10:10:47;;;;;;;3.78;0.80;;;;;;;7.45;28.90;102474.28;4986065;28;100221;-79
2021/03/20 10:13:36;;;;;;;7.90;1.65;;;;;;;7.32;29.09;102485.59;4988223;28;98142;-76
2021/03/20 10:16:05;;;;;;;3.63;1.40;;;;;;;6.68;29.91;102477.28;4992193;28;96955;-78
2021/03/20 10:18:34;;;;;;;4.03;1.10;;;;;;;7.94;28.23;102469.19;5000513;28;96830;-79
2021/03/20 10:21:24;;;;;;;10.88;1.30;;;;;;;7.60;28.66;102474.34;4995194;28;98977;-80
2021/03/20 10:24:03;;;;;;;5.70;2.13;;;;;;;7.99;27.98;102478.84;4991837;28;99203;-80
2021/03/20 10:26:41;;;;;;;3.83;0.95;;;;;;;6.93;29.11;102477.47;4995166;28;97015;-80
2021/03/20 10:29:25;;;;;;;2.83;1.10;;;;;;;7.86;27.95;102470.91;4993704;28;98103;-81
2021/03/20 10:31:54;;;;;;;4.70;1.30;;;;;;;7.64;28.16;102469.97;4996195;28;99906;-79
2021/03/20 10:34:24;;;;;;;6.15;1.05;;;;;;;7.83;28.25;102465.63;4998964;28;98974;-83
2021/03/20 10:37:03;;;;;;;4.13;1.63;;;;;;;8.17;27.46;102464.84;4999322;28;96858;-81
2021/03/20 10:39:33;;;;;;;2.75;0.90;;;;;;;7.86;27.59;102452.50;5006149;28;96664;-78
2021/03/20 10:42:05;;;;;;;3.30;1.10;;;;;;;7.69;28.25;102455.06;5000737;28;98659;-81
2021/03/20 10:44:39;;;;;;;3.58;1.15;;;;;;;7.82;28.53;102458.59;5004685;28;96992;-79
2021/03/20 10:47:08;;;;;;;4.70;1.10;;;;;;;9.02;27.05;102451.69;4999606;28;97063;-80
2021/03/20 10:49:40;;;;;;;4.20;0.93;;;;;;;9.16;26.03;102441.09;5010263;28;96732;-79
2021/03/20 10:52:16;;;;;;;2.90;1.10;;;;;;;9.84;25.94;102446.09;5012273;28;97726;-79
2021/03/20 10:54:54;;;;;;;8.35;1.10;;;;;;;9.99;25.33;102446.00;5003023;28;99400;-80
2021/03/20 10:57:23;;;;;;;3.92;0.77;;;;;;;10.65;25.28;102441.13;5012826;28;96669;-79
2021/03/20 10:59:51;;;;;;;2.38;1.10;;;;;;;10.19;24.87;102437.09;4997637;28;96832;-80
2021/03/20 11:02:36;;;;;;;3.47;1.00;;;;;;;10.47;24.61;102433.34;4998572;28;99263;-80
2021/03/20 11:05:30;;;;;;;4.32;1.08;;;;;;;9.97;25.25;102426.66;4994973;28;97678;-79
2021/03/20 11:08:02;;;;;;;3.50;0.98;;;;;;;9.45;25.68;102418.13;4997580;28;98101;-80
2021/03/20 11:10:32;;;;;;;4.28;1.23;;;;;;;9.08;26.22;102419.13;4995233;28;96906;-80
2021/03/20 11:13:04;;;;;;;4.07;1.13;;;;;;;8.89;26.10;102426.22;4994688;28;98875;-80
2021/03/20 11:15:35;;;;;;;3.55;1.00;;;;;;;9.43;25.58;102421.66;4993943;28;97843;-80
2021/03/20 11:18:05;;;;;;;3.80;0.98;;;;;;;9.35;25.96;102418.16;4998946;28;96646;-78
2021/03/20 11:20:34;;;;;;;4.40;1.00;;;;;;;9.77;25.33;102407.41;4995628;28;97049;-78
2021/03/20 11:23:01;;;;;;;2.33;1.13;;;;;;;10.12;24.79;102406.28;4996585;28;98919;-79
2021/03/20 11:25:32;;;;;;;4.97;1.17;;;;;;;9.66;24.89;102406.56;4990874;28;98847;-80
2021/03/20 11:28:01;;;;;;;1.95;1.02;;;;;;;10.10;24.76;102405.44;4992484;28;97084;-80
2021/03/20 11:30:31;;;;;;;2.33;1.15;;;;;;;10.09;24.15;102399.28;4999431;28;96727;-80
2021/03/20 11:33:01;;;;;;;6.45;1.50;;;;;;;10.30;23.77;102398.28;4986415;28;98928;-80
2021/03/20 11:35:29;;;;;;;8.75;3.83;;;;;;;10.67;23.48;102410.28;4992781;28;99089;-80
2021/03/20 11:38:00;;;;;;;6.15;3.38;;;;;;;10.51;23.50;102403.34;4982047;28;96788;-79
2021/03/20 11:40:29;;;;;;;3.63;1.38;;;;;;;10.81;23.74;102396.91;4990339;28;97256;-79
2021/03/20 11:42:58;;;;;;;3.00;1.58;;;;;;;11.02;23.14;102401.09;4992736;28;98898;-79
2021/03/20 11:45:27;;;;;;;4.63;1.33;;;;;;;10.63;23.57;102397.09;4994042;28;99086;-79
2021/03/20 11:47:57;;;;;;;2.20;1.08;;;;;;;11.00;23.17;102387.00;4996983;28;97315;-79
2021/03/20 11:50:27;;;;;;;3.25;1.30;;;;;;;11.01;23.29;102383.47;4993160;28;97265;-80
2021/03/20 11:52:58;;;;;;;3.92;1.50;;;;;;;10.81;23.13;102373.13;4990149;28;98880;-78
2021/03/20 11:55:52;;;;;;;2.50;1.35;;;;;;;10.65;23.03;102376.78;4986245;28;98866;-79
2021/03/20 11:58:27;;;;;;;2.63;1.42;;;;;;;10.05;23.88;102370.25;4974218;28;97138;-79
2021/03/20 12:00:55;;;;;;;2.50;1.65;;;;;;;10.00;23.74;102365.00;4997068;28;97265;-77
2021/03/20 12:03:33;;;;;;;5.28;1.58;;;;;;;10.06;23.37;102364.94;4993982;28;97616;-78
2021/03/20 12:06:31;;;;;;;3.20;1.10;;;;;;;9.83;24.31;102358.97;4985216;28;98897;-77